Terminal Aerodrome Forecast
Issued by NWS Nashville, TN

Home | Current Version | Previous Version | Text Only | Print | Product List | Glossary On
Versions: 1 2 3 4 5 6 7 8 9 10 11 12 13 14 15 16 17 18 19 20 21 22 23 24 25 26 27 28 29 30 31 32
125
FTUS44 KOHX 101532 AAD
TAFBNA
TAF AMD
KBNA 101532Z 1016/1112 30010KT P6SM BKN035
     FM101800 29009KT P6SM SCT060
     FM110000 VRB05KT 6SM -SHSN OVC035
     FM110700 14003KT P6SM OVC040=

USA.gov is the U.S. government's official web portal to all federal, state and local government web resources and services.